createdAt,value
2023-03-17T00:00:19.389Z,59.57
2023-03-17T00:02:48.876Z,59.32
2023-03-17T00:05:25.538Z,58.76
2023-03-17T00:07:54.654Z,58.65
2023-03-17T00:10:26.378Z,59.45
2023-03-17T00:12:55.214Z,58.76
2023-03-17T00:15:23.264Z,58.23
2023-03-17T00:17:50.467Z,58.68
2023-03-17T00:20:32.460Z,58.32
2023-03-17T00:23:01.817Z,58.22
2023-03-17T00:25:31.008Z,58.09
2023-03-17T00:27:58.063Z,58.35
2023-03-17T00:30:28.381Z,58.64
2023-03-17T00:32:58.111Z,58.44
2023-03-17T00:35:28.673Z,57.77
2023-03-17T00:37:57.844Z,57.95
2023-03-17T00:40:28.310Z,57.85
2023-03-17T00:42:55.728Z,57.28
2023-03-17T00:45:24.006Z,56.84
2023-03-17T00:47:53.034Z,57.19
2023-03-17T00:50:22.197Z,57.37
2023-03-17T00:52:51.065Z,57.41
2023-03-17T00:55:19.139Z,57.56
2023-03-17T00:57:47.539Z,57.64
2023-03-17T01:00:25.217Z,58.95
2023-03-17T01:02:57.401Z,58.12
2023-03-17T01:05:25.830Z,57.68
2023-03-17T01:07:56.981Z,57.73
2023-03-17T01:10:26.505Z,58.19
2023-03-17T01:12:55.562Z,58.11
2023-03-17T01:15:22.903Z,58.77
2023-03-17T01:17:50.818Z,58.55
2023-03-17T01:20:24.384Z,59.38
2023-03-17T01:22:52.281Z,58.92
2023-03-17T01:25:20.113Z,59.57
2023-03-17T01:27:48.081Z,60.18
2023-03-17T01:30:22.889Z,59.95
2023-03-17T01:32:50.192Z,60.45
2023-03-17T01:35:18.090Z,59.89
2023-03-17T01:37:46.446Z,59.17
2023-03-17T01:40:23.891Z,59.77
2023-03-17T01:43:27.318Z,59.10
2023-03-17T01:46:25.444Z,59.33
2023-03-17T01:49:13.848Z,59.02
2023-03-17T01:52:05.150Z,59.50
2023-03-17T01:54:38.096Z,58.77
2023-03-17T01:57:40.116Z,58.57
2023-03-17T02:00:10.923Z,58.62
2023-03-17T02:02:43.859Z,58.74
2023-03-17T02:05:15.436Z,59.46
2023-03-17T02:07:42.675Z,59.22
2023-03-17T02:10:10.359Z,59.18
2023-03-17T02:12:42.180Z,58.48
2023-03-17T02:15:11.575Z,58.05
2023-03-17T02:17:38.757Z,58.28
2023-03-17T02:20:12.892Z,58.53
2023-03-17T02:22:39.810Z,58.63
2023-03-17T02:25:07.196Z,58.58
2023-03-17T02:27:42.585Z,58.55
2023-03-17T02:30:11.758Z,58.68
2023-03-17T02:32:39.394Z,58.69
2023-03-17T02:35:08.148Z,58.11
2023-03-17T02:37:38.201Z,58.52
2023-03-17T02:40:07.251Z,58.92
2023-03-17T02:42:34.470Z,58.94
2023-03-17T02:45:01.474Z,58.71
2023-03-17T02:47:28.474Z,59.31
2023-03-17T02:49:55.599Z,59.23
2023-03-17T02:52:22.451Z,60.64
2023-03-17T02:54:49.496Z,61.04
2023-03-17T02:57:16.553Z,60.98
2023-03-17T02:59:43.496Z,60.59
2023-03-17T03:02:10.489Z,60.96
2023-03-17T03:04:37.910Z,60.50
2023-03-17T03:07:04.953Z,60.72
2023-03-17T03:09:32.127Z,61.35
2023-03-17T03:11:58.958Z,60.97
2023-03-17T03:14:25.941Z,60.98
2023-03-17T03:16:52.841Z,61.49
2023-03-17T03:19:20.410Z,61.50
2023-03-17T03:21:47.302Z,61.31
2023-03-17T03:24:14.323Z,62.16
2023-03-17T03:26:41.137Z,62.03
2023-03-17T03:29:08.936Z,62.69
2023-03-17T03:31:35.878Z,62.65
2023-03-17T03:34:02.907Z,63.28
2023-03-17T03:36:29.920Z,63.80
2023-03-17T03:38:56.838Z,64.87
2023-03-17T03:41:23.690Z,64.67
2023-03-17T03:43:50.591Z,65.02
2023-03-17T03:46:17.777Z,64.35
2023-03-17T03:48:44.810Z,64.26
2023-03-17T03:51:11.749Z,65.07
2023-03-17T03:53:38.721Z,65.38
2023-03-17T03:56:06.068Z,64.47
2023-03-17T03:58:32.919Z,64.58
2023-03-17T04:00:59.804Z,64.79
2023-03-17T04:03:26.738Z,64.85
2023-03-17T04:05:53.625Z,64.70
2023-03-17T04:08:20.620Z,65.92
2023-03-17T04:10:47.587Z,64.95
2023-03-17T04:13:14.558Z,64.31
2023-03-17T04:15:41.799Z,64.37
2023-03-17T04:18:08.687Z,64.23
2023-03-17T04:20:35.650Z,64.41
2023-03-17T04:23:02.728Z,64.50
2023-03-17T04:25:29.559Z,64.13
2023-03-17T04:27:56.492Z,65.31
2023-03-17T04:30:23.392Z,64.21
2023-03-17T04:32:50.370Z,64.12
2023-03-17T04:35:19.952Z,63.92
2023-03-17T04:37:47.043Z,64.92
2023-03-17T04:40:15.020Z,64.14
2023-03-17T04:42:42.144Z,64.46
2023-03-17T04:45:12.123Z,64.82
2023-03-17T04:47:39.145Z,65.13
2023-03-17T04:50:06.585Z,66.08
2023-03-17T04:52:33.750Z,65.91
2023-03-17T04:55:00.741Z,66.40
2023-03-17T04:57:27.699Z,66.39
2023-03-17T04:59:54.629Z,66.81
2023-03-17T05:02:21.620Z,66.90
2023-03-17T05:04:48.590Z,67.07
2023-03-17T05:07:16.790Z,67.05
2023-03-17T05:09:43.720Z,66.94
2023-03-17T05:12:11.155Z,66.89
2023-03-17T05:14:38.160Z,67.62
2023-03-17T05:17:05.200Z,67.30
2023-03-17T05:19:32.225Z,66.73
2023-03-17T05:21:59.407Z,67.37
2023-03-17T05:24:26.462Z,67.05
2023-03-17T05:26:53.483Z,67.26
2023-03-17T05:29:20.295Z,67.65
2023-03-17T05:31:47.302Z,67.69
2023-03-17T05:34:14.197Z,67.17
2023-03-17T05:36:41.120Z,67.15
2023-03-17T05:39:08.016Z,66.45
2023-03-17T05:41:34.936Z,66.16
2023-03-17T05:44:01.865Z,67.75
2023-03-17T05:46:28.939Z,67.66
2023-03-17T05:48:55.751Z,67.09
2023-03-17T05:51:22.779Z,67.35
2023-03-17T05:53:49.677Z,66.60
2023-03-17T05:56:16.645Z,66.47
2023-03-17T05:58:43.596Z,66.65
2023-03-17T06:01:10.567Z,66.00
2023-03-17T06:03:37.402Z,66.26
2023-03-17T06:06:05.634Z,65.54
2023-03-17T06:08:32.561Z,65.90
2023-03-17T06:10:59.453Z,65.51
2023-03-17T06:13:26.326Z,65.06
2023-03-17T06:15:53.230Z,64.76
2023-03-17T06:18:20.106Z,66.42
2023-03-17T06:20:47.185Z,65.62
2023-03-17T06:23:14.206Z,65.68
2023-03-17T06:25:41.129Z,66.17
2023-03-17T06:28:08.106Z,65.38
2023-03-17T06:30:37.555Z,65.57
2023-03-17T06:33:06.340Z,65.62
2023-03-17T06:35:33.522Z,66.80
2023-03-17T06:38:01.115Z,66.75
2023-03-17T06:40:28.333Z,66.90
2023-03-17T06:42:55.237Z,66.91
2023-03-17T06:45:22.171Z,66.36
2023-03-17T06:47:49.247Z,66.86
2023-03-17T06:50:16.248Z,66.52
2023-03-17T06:52:44.960Z,66.75
2023-03-17T06:55:13.462Z,67.67
2023-03-17T06:57:40.402Z,68.36
2023-03-17T07:00:10.792Z,68.18
2023-03-17T07:02:38.124Z,67.96
2023-03-17T07:05:05.466Z,67.81
2023-03-17T07:07:32.599Z,68.11
2023-03-17T07:09:59.412Z,69.00
2023-03-17T07:12:26.287Z,69.29
2023-03-17T07:14:53.188Z,68.93
2023-03-17T07:17:20.031Z,68.90
2023-03-17T07:19:49.539Z,68.35
2023-03-17T07:22:16.628Z,68.69
2023-03-17T07:24:43.501Z,69.28
2023-03-17T07:27:10.921Z,69.61
2023-03-17T07:29:37.910Z,69.00
2023-03-17T07:32:07.946Z,69.16
2023-03-17T07:34:35.354Z,70.09
2023-03-17T07:37:03.486Z,69.40
2023-03-17T07:39:30.663Z,69.41
2023-03-17T07:41:57.529Z,69.03
2023-03-17T07:44:25.455Z,68.95
2023-03-17T07:46:52.393Z,69.80
2023-03-17T07:49:34.087Z,69.61
2023-03-17T07:52:08.446Z,70.14
2023-03-17T07:54:36.058Z,70.61
2023-03-17T07:57:03.668Z,71.16
2023-03-17T07:59:30.518Z,71.08
2023-03-17T08:01:58.266Z,70.93
2023-03-17T08:04:25.209Z,70.19
2023-03-17T08:06:52.433Z,70.91
2023-03-17T08:09:19.321Z,70.98
2023-03-17T08:11:46.328Z,70.94
2023-03-17T08:14:13.286Z,71.31
2023-03-17T08:16:40.409Z,71.76
2023-03-17T08:19:07.731Z,71.63
2023-03-17T08:21:34.666Z,71.59
2023-03-17T08:24:01.594Z,71.09
2023-03-17T08:26:28.590Z,70.97
2023-03-17T08:28:55.422Z,71.96
2023-03-17T08:31:22.747Z,71.45
2023-03-17T08:33:52.403Z,72.23
2023-03-17T08:36:20.773Z,72.61
2023-03-17T08:38:48.614Z,71.91
2023-03-17T08:41:18.901Z,72.08
2023-03-17T08:43:46.735Z,71.42
2023-03-17T08:46:25.611Z,71.32
2023-03-17T08:48:54.097Z,72.06
2023-03-17T08:51:24.365Z,72.65
2023-03-17T08:53:53.301Z,71.53
2023-03-17T08:56:20.748Z,72.72
2023-03-17T08:58:48.386Z,72.80
2023-03-17T09:01:16.512Z,73.47
2023-03-17T09:03:44.300Z,73.11
2023-03-17T09:06:12.229Z,73.11
2023-03-17T09:08:41.494Z,73.43
2023-03-17T09:11:09.503Z,73.61
2023-03-17T09:13:37.259Z,73.00
2023-03-17T09:16:04.307Z,73.88
2023-03-17T09:18:31.414Z,74.13
2023-03-17T09:20:58.309Z,73.58
2023-03-17T09:23:27.673Z,73.41
2023-03-17T09:25:54.972Z,73.36
2023-03-17T09:28:21.949Z,73.91
2023-03-17T09:30:48.871Z,75.02
2023-03-17T09:33:16.337Z,74.18
2023-03-17T09:35:43.697Z,75.20
2023-03-17T09:38:11.146Z,75.22
2023-03-17T09:40:52.886Z,75.70
2023-03-17T09:43:25.928Z,74.50
2023-03-17T09:45:53.242Z,75.48
2023-03-17T09:48:28.672Z,75.09
2023-03-17T09:51:07.888Z,74.23
2023-03-17T09:53:40.739Z,75.48
2023-03-17T09:56:14.321Z,75.16
2023-03-17T09:58:51.773Z,74.78
2023-03-17T10:01:19.378Z,75.38
2023-03-17T10:03:47.730Z,74.87
2023-03-17T10:06:20.680Z,74.98
2023-03-17T10:09:34.453Z,74.59
2023-03-17T10:12:15.368Z,74.63
2023-03-17T10:15:06.994Z,75.10
2023-03-17T10:17:40.610Z,74.85
2023-03-17T10:20:09.453Z,75.23
2023-03-17T10:22:41.753Z,74.65
2023-03-17T10:25:29.116Z,75.26
2023-03-17T10:27:58.887Z,74.88
2023-03-17T10:30:26.214Z,75.39
2023-03-17T10:32:59.015Z,75.48
2023-03-17T10:35:26.532Z,76.10
2023-03-17T10:38:08.014Z,75.72
2023-03-17T10:40:40.576Z,75.79
2023-03-17T10:43:17.241Z,76.39
2023-03-17T10:46:02.625Z,75.38
2023-03-17T10:48:31.376Z,76.58
2023-03-17T10:50:58.590Z,76.78
2023-03-17T10:53:27.789Z,76.62
2023-03-17T10:55:59.156Z,76.17
2023-03-17T10:58:29.167Z,76.26
2023-03-17T11:00:57.290Z,76.54
2023-03-17T11:03:28.700Z,76.31
2023-03-17T11:06:03.331Z,75.73
2023-03-17T11:08:35.868Z,75.98
2023-03-17T11:11:07.574Z,75.58
2023-03-17T11:13:34.645Z,76.49
2023-03-17T11:16:21.083Z,76.57
2023-03-17T11:18:51.500Z,76.98
2023-03-17T11:21:56.251Z,77.09
2023-03-17T11:24:33.804Z,76.88
2023-03-17T11:27:02.812Z,77.11
2023-03-17T11:30:02.673Z,77.46
2023-03-17T11:32:36.293Z,77.53
2023-03-17T11:35:18.231Z,77.29
2023-03-17T11:38:19.068Z,76.82
2023-03-17T11:41:03.966Z,77.56
2023-03-17T11:43:43.863Z,77.35
2023-03-17T11:46:46.601Z,76.98
2023-03-17T11:49:22.208Z,77.24
2023-03-17T11:52:07.661Z,77.15
2023-03-17T11:54:40.823Z,77.86
2023-03-17T11:57:21.661Z,77.98
2023-03-17T11:59:58.723Z,77.88
2023-03-17T12:02:32.053Z,77.63
2023-03-17T12:05:04.150Z,76.90
2023-03-17T12:07:52.681Z,77.94
2023-03-17T12:10:26.647Z,77.24
2023-03-17T12:13:00.468Z,77.01
2023-03-17T12:15:36.168Z,77.36
2023-03-17T12:18:09.633Z,77.15
2023-03-17T12:20:46.718Z,77.55
2023-03-17T12:23:26.105Z,77.67
2023-03-17T12:26:05.033Z,77.73
2023-03-17T12:28:38.704Z,77.35
2023-03-17T12:31:32.062Z,77.99
2023-03-17T12:34:36.425Z,77.79
2023-03-17T12:37:04.079Z,77.96
2023-03-17T12:39:34.154Z,77.80
2023-03-17T12:42:13.049Z,77.89
2023-03-17T12:44:43.070Z,78.82
2023-03-17T12:47:27.266Z,79.10
2023-03-17T12:50:09.458Z,79.27
2023-03-17T12:53:21.060Z,79.41
2023-03-17T12:55:52.498Z,79.18
2023-03-17T12:58:32.266Z,79.41
2023-03-17T13:01:05.064Z,79.64
2023-03-17T13:03:34.460Z,79.29
2023-03-17T13:06:05.173Z,78.69
2023-03-17T13:08:39.984Z,79.40
2023-03-17T13:11:17.706Z,79.20
2023-03-17T13:13:53.830Z,78.83
2023-03-17T13:16:40.848Z,78.79
2023-03-17T13:19:21.053Z,79.17
2023-03-17T13:21:52.728Z,79.20
2023-03-17T13:24:36.306Z,79.01
2023-03-17T13:27:04.267Z,79.08
2023-03-17T13:29:34.196Z,78.35
2023-03-17T13:32:31.743Z,78.28
2023-03-17T13:35:01.694Z,78.05
2023-03-17T13:37:54.220Z,78.77
2023-03-17T13:41:05.977Z,78.59
2023-03-17T13:43:46.435Z,78.63
2023-03-17T13:46:21.056Z,77.91
2023-03-17T13:48:48.969Z,77.54
2023-03-17T13:51:19.772Z,77.30
2023-03-17T13:53:52.312Z,77.94
2023-03-17T13:56:26.652Z,78.11
2023-03-17T13:58:58.453Z,78.12
2023-03-17T14:01:26.710Z,77.35
2023-03-17T14:03:56.298Z,77.24
2023-03-17T14:06:28.513Z,78.07
2023-03-17T14:09:00.953Z,77.71
2023-03-17T14:11:36.885Z,78.01
2023-03-17T14:14:36.139Z,78.43
2023-03-17T14:17:15.199Z,78.23
2023-03-17T14:20:00.537Z,78.26
2023-03-17T14:22:27.637Z,78.43
2023-03-17T14:24:56.343Z,78.16
2023-03-17T14:27:25.037Z,78.33
2023-03-17T14:29:52.412Z,78.23
2023-03-17T14:32:23.453Z,78.50
2023-03-17T14:34:58.746Z,77.98
2023-03-17T14:37:27.629Z,78.44
2023-03-17T14:39:57.131Z,77.70
2023-03-17T14:42:29.767Z,77.68
2023-03-17T14:45:02.867Z,77.76
2023-03-17T14:47:37.458Z,77.91
2023-03-17T14:50:14.533Z,77.53
2023-03-17T14:52:41.575Z,78.08
2023-03-17T14:55:14.740Z,77.34
2023-03-17T14:57:42.101Z,77.47
2023-03-17T15:00:27.131Z,78.01
2023-03-17T15:02:58.433Z,78.18
2023-03-17T15:05:40.409Z,79.02
2023-03-17T15:08:29.994Z,78.61
2023-03-17T15:11:02.477Z,78.35
2023-03-17T15:13:35.317Z,78.20
2023-03-17T15:16:25.196Z,78.57
2023-03-17T15:19:03.333Z,78.89
2023-03-17T15:21:41.005Z,77.98
2023-03-17T15:24:33.728Z,78.65
2023-03-17T15:27:14.163Z,79.03
2023-03-17T15:29:41.324Z,78.93
2023-03-17T15:32:14.508Z,79.06
2023-03-17T15:34:41.896Z,79.35
2023-03-17T15:37:18.096Z,79.18
2023-03-17T15:39:45.390Z,79.40
2023-03-17T15:42:12.205Z,79.65
2023-03-17T15:44:39.179Z,79.45
2023-03-17T15:47:06.250Z,78.57
2023-03-17T15:49:34.103Z,79.20
2023-03-17T15:52:01.043Z,80.01
2023-03-17T15:54:28.034Z,79.82
2023-03-17T15:56:54.874Z,80.35
2023-03-17T15:59:22.071Z,79.97
2023-03-17T16:01:49.125Z,80.38
2023-03-17T16:04:16.463Z,79.90
2023-03-17T16:06:43.439Z,79.73
2023-03-17T16:09:15.534Z,79.51
2023-03-17T16:11:42.594Z,79.73
2023-03-17T16:14:10.433Z,79.85
2023-03-17T16:16:43.139Z,79.75
2023-03-17T16:19:22.156Z,79.37
2023-03-17T16:21:49.257Z,79.70
2023-03-17T16:24:21.787Z,80.15
2023-03-17T16:26:49.642Z,80.65
2023-03-17T16:29:19.958Z,80.01
2023-03-17T16:31:49.652Z,80.47
2023-03-17T16:34:21.783Z,81.08
2023-03-17T16:36:49.917Z,81.30
2023-03-17T16:39:19.041Z,81.31
2023-03-17T16:41:47.594Z,80.83
2023-03-17T16:44:16.689Z,80.57
2023-03-17T16:46:43.755Z,81.27
2023-03-17T16:49:28.925Z,81.29
2023-03-17T16:51:55.927Z,80.92
2023-03-17T16:54:22.764Z,80.55
2023-03-17T16:56:50.506Z,80.80
2023-03-17T16:59:21.215Z,80.69
2023-03-17T17:01:48.618Z,81.08
2023-03-17T17:04:15.608Z,80.81
2023-03-17T17:06:43.594Z,80.41
2023-03-17T17:09:10.619Z,80.59
2023-03-17T17:11:38.063Z,80.26
2023-03-17T17:14:05.047Z,80.29
2023-03-17T17:16:36.404Z,79.60
2023-03-17T17:19:09.566Z,80.26
2023-03-17T17:21:36.582Z,80.01
2023-03-17T17:24:03.539Z,80.17
2023-03-17T17:26:30.957Z,79.21
2023-03-17T17:28:57.804Z,79.66
2023-03-17T17:31:25.068Z,79.60
2023-03-17T17:33:52.294Z,80.06
2023-03-17T17:36:19.386Z,79.82
2023-03-17T17:38:46.660Z,79.67
2023-03-17T17:41:14.525Z,78.86
2023-03-17T17:43:41.482Z,79.34
2023-03-17T17:46:15.637Z,78.64
2023-03-17T17:48:42.781Z,78.73
2023-03-17T17:51:09.683Z,78.77
2023-03-17T17:53:36.749Z,78.71
2023-03-17T17:56:03.810Z,78.22
2023-03-17T17:58:31.012Z,78.51
2023-03-17T18:00:58.293Z,78.33
2023-03-17T18:03:26.838Z,78.17
2023-03-17T18:05:58.153Z,78.59
2023-03-17T18:08:25.984Z,79.05
2023-03-17T18:10:53.496Z,78.39
2023-03-17T18:13:20.629Z,78.55
2023-03-17T18:15:47.924Z,78.48
2023-03-17T18:18:15.003Z,79.35
2023-03-17T18:20:42.229Z,78.75
2023-03-17T18:23:09.510Z,79.13
2023-03-17T18:25:36.655Z,79.33
2023-03-17T18:28:03.606Z,79.08
2023-03-17T18:30:32.014Z,78.94
2023-03-17T18:33:23.037Z,79.14
2023-03-17T18:35:51.682Z,79.24
2023-03-17T18:38:18.653Z,79.14
2023-03-17T18:40:46.021Z,79.27
2023-03-17T18:43:13.023Z,79.28
2023-03-17T18:45:40.158Z,79.99
2023-03-17T18:48:07.279Z,79.90
2023-03-17T18:50:34.561Z,80.01
2023-03-17T18:53:01.532Z,79.47
2023-03-17T18:55:28.475Z,79.48
2023-03-17T18:57:56.552Z,79.63
2023-03-17T19:00:24.110Z,79.09
2023-03-17T19:02:51.837Z,79.51
2023-03-17T19:05:18.802Z,79.84
2023-03-17T19:07:45.804Z,79.47
2023-03-17T19:10:13.814Z,79.19
2023-03-17T19:12:41.609Z,78.90
2023-03-17T19:15:09.604Z,79.60
2023-03-17T19:17:36.554Z,79.34
2023-03-17T19:20:04.221Z,78.93
2023-03-17T19:22:31.110Z,79.05
2023-03-17T19:24:58.425Z,78.55
2023-03-17T19:27:25.544Z,78.46
2023-03-17T19:29:52.607Z,78.37
2023-03-17T19:32:19.500Z,78.46
2023-03-17T19:34:46.418Z,78.20
2023-03-17T19:37:14.110Z,78.24
2023-03-17T19:39:41.142Z,79.10
2023-03-17T19:42:08.102Z,78.92
2023-03-17T19:44:35.075Z,78.91
2023-03-17T19:47:01.949Z,78.51
2023-03-17T19:49:28.942Z,78.18
2023-03-17T19:51:55.952Z,78.59
2023-03-17T19:54:23.437Z,77.89
2023-03-17T19:56:50.612Z,78.04
2023-03-17T19:59:17.595Z,78.38
2023-03-17T20:01:44.469Z,77.76
2023-03-17T20:04:11.631Z,77.32
2023-03-17T20:06:38.576Z,77.86
2023-03-17T20:09:05.935Z,77.66
2023-03-17T20:11:32.765Z,77.86
2023-03-17T20:14:04.029Z,77.66
2023-03-17T20:16:35.117Z,77.46
2023-03-17T20:19:03.098Z,77.00
2023-03-17T20:21:30.100Z,77.00
2023-03-17T20:23:57.285Z,76.75
2023-03-17T20:26:24.668Z,77.04
2023-03-17T20:28:52.098Z,76.21
2023-03-17T20:31:19.072Z,76.12
2023-03-17T20:33:48.381Z,75.74
2023-03-17T20:36:15.390Z,75.90
2023-03-17T20:38:42.260Z,75.80
2023-03-17T20:41:12.922Z,75.89
2023-03-17T20:43:40.517Z,75.46
2023-03-17T20:46:09.428Z,75.18
2023-03-17T20:48:37.420Z,75.58
2023-03-17T20:51:07.459Z,75.51
2023-03-17T20:53:34.516Z,75.61
2023-03-17T20:56:01.341Z,75.28
2023-03-17T20:58:28.311Z,75.25
2023-03-17T21:00:55.292Z,75.49
2023-03-17T21:03:22.299Z,75.49
2023-03-17T21:05:49.513Z,75.65
2023-03-17T21:08:16.466Z,75.77
2023-03-17T21:10:43.321Z,75.38
2023-03-17T21:13:10.424Z,75.45
2023-03-17T21:15:37.509Z,75.47
2023-03-17T21:18:04.765Z,75.94
2023-03-17T21:20:32.382Z,76.03
2023-03-17T21:22:59.656Z,75.68
2023-03-17T21:25:26.730Z,75.01
2023-03-17T21:27:53.519Z,75.46
2023-03-17T21:30:20.548Z,76.00
2023-03-17T21:32:47.501Z,75.20
2023-03-17T21:35:14.528Z,75.23
2023-03-17T21:37:41.428Z,74.92
2023-03-17T21:40:09.068Z,75.51
2023-03-17T21:42:35.997Z,75.35
2023-03-17T21:45:02.994Z,75.08
2023-03-17T21:47:29.951Z,75.70
2023-03-17T21:49:57.477Z,75.08
2023-03-17T21:52:25.163Z,76.07
2023-03-17T21:54:52.047Z,75.10
2023-03-17T21:57:19.031Z,75.26
2023-03-17T21:59:46.113Z,75.05
2023-03-17T22:02:13.541Z,75.12
2023-03-17T22:04:40.404Z,75.65
2023-03-17T22:07:07.443Z,75.62
2023-03-17T22:09:34.311Z,74.66
2023-03-17T22:12:01.133Z,74.96
2023-03-17T22:14:28.035Z,75.10
2023-03-17T22:16:54.939Z,74.78
2023-03-17T22:19:21.908Z,74.81
2023-03-17T22:21:49.511Z,74.58
2023-03-17T22:24:16.558Z,74.93
2023-03-17T22:26:43.499Z,74.26
2023-03-17T22:29:10.419Z,74.37
2023-03-17T22:31:37.295Z,74.17
2023-03-17T22:34:04.281Z,73.82
2023-03-17T22:36:31.314Z,74.68
2023-03-17T22:38:59.206Z,73.87
2023-03-17T22:41:29.250Z,73.83
2023-03-17T22:43:56.557Z,74.04
2023-03-17T22:46:24.434Z,73.48
2023-03-17T22:48:51.524Z,74.66
2023-03-17T22:51:23.583Z,73.65
2023-03-17T22:53:51.680Z,73.95
2023-03-17T22:56:20.075Z,73.78
2023-03-17T22:58:47.404Z,73.61
2023-03-17T23:01:16.655Z,73.29
2023-03-17T23:03:44.321Z,73.93
2023-03-17T23:06:12.304Z,73.67
2023-03-17T23:08:40.759Z,73.21
2023-03-17T23:11:11.245Z,73.06
2023-03-17T23:13:38.877Z,73.07
2023-03-17T23:16:06.436Z,73.41
2023-03-17T23:18:33.612Z,72.89
2023-03-17T23:21:02.144Z,72.82
2023-03-17T23:23:29.258Z,73.16
2023-03-17T23:25:56.326Z,72.72
2023-03-17T23:28:23.677Z,73.27
2023-03-17T23:30:52.161Z,72.79
2023-03-17T23:33:19.104Z,73.06
2023-03-17T23:35:46.043Z,72.71
2023-03-17T23:38:13.147Z,72.20
2023-03-17T23:40:39.994Z,72.39
2023-03-17T23:43:06.954Z,71.99
2023-03-17T23:45:33.902Z,71.41
2023-03-17T23:48:01.177Z,72.01
2023-03-17T23:50:28.036Z,71.56
2023-03-17T23:52:54.973Z,71.15
2023-03-17T23:55:21.762Z,70.71
2023-03-17T23:57:49.045Z,70.75
